Time;durP1;ratioP1;P1;durP2;ratioP2;P2;SDS_P1;SDS_P2;PMS_P1;PMS_P2;Temp;Humidity;BMP_temperature;BMP_pressure;BME280_temperature;BME280_humidity;BME280_pressure;Samples;Min_cycle;Max_cycle;Signal;HPM_P1;HPM_P2
2023/06/19 00:00:12;;;;;;;7.82;5.07;;;;;;;;;;5131369;27;20030;-78
2023/06/19 00:02:39;;;;;;;11.63;5.18;;;;;;;;;;5131805;27;20122;-78
2023/06/19 00:05:06;;;;;;;8.73;4.75;;;;;;;;;;5130745;27;20019;-78
2023/06/19 00:07:31;;;;;;;7.85;5.20;;;;;;;;;;5113489;27;20123;-78
2023/06/19 00:09:57;;;;;;;5.75;5.05;;;;;;;;;;5131540;27;20063;-77
2023/06/19 00:12:24;;;;;;;9.95;6.13;;;;;;;;;;5080679;27;20066;-79
2023/06/19 00:14:50;;;;;;;6.38;5.60;;;;;;;;;;5136238;27;20066;-78
2023/06/19 00:17:19;;;;;;;7.15;5.35;;;;;;;;;;5123128;27;20050;-78
2023/06/19 00:19:45;;;;;;;6.43;5.63;;;;;;;;;;5105987;27;20030;-80
2023/06/19 00:22:11;;;;;;;6.25;4.80;;;;;;;;;;5140320;27;20050;-77
2023/06/19 00:24:37;;;;;;;7.82;4.90;;;;;;;;;;5123049;27;20034;-77
2023/06/19 00:27:03;;;;;;;4.60;3.88;;;;;;;;;;5140838;27;20031;-79
2023/06/19 00:29:29;;;;;;;6.93;3.88;;;;;;;;;;5122445;27;20062;-77
2023/06/19 00:31:56;;;;;;;4.55;3.85;;;;;;;;;;5122277;27;20034;-79
2023/06/19 00:34:24;;;;;;;4.60;3.47;;;;;;;;;;5121780;28;20034;-78
2023/06/19 00:36:50;;;;;;;4.05;3.67;;;;;;;;;;5138780;27;20047;-79
2023/06/19 00:39:16;;;;;;;5.00;4.07;;;;;;;;;;5138745;27;20035;-80
2023/06/19 00:41:43;;;;;;;7.57;5.03;;;;;;;;;;5120011;27;20084;-78
2023/06/19 00:44:09;;;;;;;6.35;5.78;;;;;;;;;;5102090;27;20039;-79
2023/06/19 00:46:37;;;;;;;9.75;5.82;;;;;;;;;;5132519;27;20051;-78
2023/06/19 00:49:04;;;;;;;11.70;6.47;;;;;;;;;;5113853;27;20365;-78
2023/06/19 00:51:30;;;;;;;7.22;6.60;;;;;;;;;;5132141;27;20505;-78
2023/06/19 00:53:56;;;;;;;9.15;7.85;;;;;;;;;;5113160;28;20214;-79
2023/06/19 00:56:22;;;;;;;12.77;8.00;;;;;;;;;;5131505;27;20039;-79
2023/06/19 00:58:50;;;;;;;13.73;9.18;;;;;;;;;;5113089;28;20042;-77
2023/06/19 01:01:15;;;;;;;15.93;9.77;;;;;;;;;;5130828;27;20393;-78
2023/06/19 01:03:42;;;;;;;10.88;9.07;;;;;;;;;;5096132;27;20035;-79
2023/06/19 01:06:10;;;;;;;14.85;9.57;;;;;;;;;;5112420;27;20065;-79
2023/06/19 01:08:55;;;;;;;15.75;8.65;;;;;;;;;;5095510;27;20501;-79
2023/06/19 01:11:25;;;;;;;12.05;8.30;;;;;;;;;;5112565;27;20043;-78
2023/06/19 01:13:55;;;;;;;13.55;8.38;;;;;;;;;;5095701;28;20119;-79
2023/06/19 01:16:22;;;;;;;15.50;7.47;;;;;;;;;;5116018;27;20054;-79
2023/06/19 01:18:48;;;;;;;9.93;7.28;;;;;;;;;;5099651;27;20031;-78
2023/06/19 01:21:15;;;;;;;10.15;8.23;;;;;;;;;;5099198;27;20435;-78
2023/06/19 01:23:41;;;;;;;11.38;8.07;;;;;;;;;;5135201;27;20038;-79
2023/06/19 01:26:07;;;;;;;10.02;7.18;;;;;;;;;;5136648;27;20046;-78
2023/06/19 01:28:33;;;;;;;10.90;8.00;;;;;;;;;;5147884;27;20039;-78
2023/06/19 01:31:00;;;;;;;11.77;6.10;;;;;;;;;;5136605;27;20089;-77
2023/06/19 01:33:26;;;;;;;7.55;6.80;;;;;;;;;;5107328;27;20099;-77
2023/06/19 01:35:52;;;;;;;9.65;6.07;;;;;;;;;;5103944;27;20074;-79
2023/06/19 01:38:19;;;;;;;7.35;5.70;;;;;;;;;;5142915;27;20054;-78
2023/06/19 01:40:45;;;;;;;9.07;5.75;;;;;;;;;;5144974;27;20042;-79
2023/06/19 01:43:11;;;;;;;7.53;5.00;;;;;;;;;;5117954;27;20027;-77
2023/06/19 01:45:38;;;;;;;10.73;5.50;;;;;;;;;;5135245;27;20409;-78
2023/06/19 01:48:05;;;;;;;7.70;5.32;;;;;;;;;;5115931;27;20034;-80
2023/06/19 01:50:31;;;;;;;10.23;5.57;;;;;;;;;;5116327;27;20110;-79
2023/06/19 01:52:57;;;;;;;6.13;4.93;;;;;;;;;;5134633;27;20194;-78
2023/06/19 01:55:23;;;;;;;9.70;5.20;;;;;;;;;;5115931;27;20420;-79
2023/06/19 01:57:49;;;;;;;7.90;4.90;;;;;;;;;;5134324;27;20559;-78
2023/06/19 02:00:16;;;;;;;6.50;5.47;;;;;;;;;;5098444;27;20122;-78
2023/06/19 02:02:43;;;;;;;6.18;4.50;;;;;;;;;;5133969;27;20069;-79
2023/06/19 02:05:10;;;;;;;4.70;4.30;;;;;;;;;;5098790;27;20433;-79
2023/06/19 02:07:36;;;;;;;6.18;4.40;;;;;;;;;;5133894;27;20035;-78
2023/06/19 02:10:02;;;;;;;5.32;4.80;;;;;;;;;;5133277;27;20051;-77
2023/06/19 02:12:32;;;;;;;5.13;4.67;;;;;;;;;;5116235;27;20043;-78
2023/06/19 02:14:58;;;;;;;9.40;4.50;;;;;;;;;;5114900;27;20275;-79
2023/06/19 02:17:24;;;;;;;4.65;4.25;;;;;;;;;;5133721;27;20039;-79
2023/06/19 02:19:51;;;;;;;7.50;4.30;;;;;;;;;;5115222;27;20047;-78
2023/06/19 02:22:40;;;;;;;5.38;4.47;;;;;;;;;;5118076;27;20043;-78
2023/06/19 02:25:06;;;;;;;5.93;4.40;;;;;;;;;;5097876;27;20099;-78
2023/06/19 02:27:32;;;;;;;5.70;4.32;;;;;;;;;;5114223;27;20041;-78
2023/06/19 02:29:59;;;;;;;7.43;4.40;;;;;;;;;;5114781;27;20035;-77
2023/06/19 02:32:26;;;;;;;7.13;4.50;;;;;;;;;;5133324;27;20083;-78
2023/06/19 02:34:52;;;;;;;4.50;4.10;;;;;;;;;;5114850;27;20034;-80
2023/06/19 02:37:18;;;;;;;7.60;4.43;;;;;;;;;;5114510;27;20509;-77
2023/06/19 02:39:44;;;;;;;4.80;3.95;;;;;;;;;;5133309;27;20031;-77
2023/06/19 02:42:10;;;;;;;6.63;4.60;;;;;;;;;;5132673;27;20038;-78
2023/06/19 02:44:36;;;;;;;11.45;4.30;;;;;;;;;;5114830;27;20057;-79
2023/06/19 02:47:02;;;;;;;5.25;4.25;;;;;;;;;;5114394;27;20035;-77
2023/06/19 02:49:28;;;;;;;5.32;4.68;;;;;;;;;;5133163;27;20126;-78
2023/06/19 02:51:55;;;;;;;9.10;4.32;;;;;;;;;;5132891;27;20086;-78
2023/06/19 02:54:21;;;;;;;10.25;4.68;;;;;;;;;;5097400;27;20027;-79
2023/06/19 02:56:47;;;;;;;8.40;4.10;;;;;;;;;;5132763;27;20049;-79
2023/06/19 02:59:17;;;;;;;7.65;4.03;;;;;;;;;;5132702;27;20130;-78
2023/06/19 03:01:43;;;;;;;6.55;4.55;;;;;;;;;;5114554;27;20038;-78
2023/06/19 03:04:12;;;;;;;4.30;3.85;;;;;;;;;;5132551;27;20513;-77
2023/06/19 03:06:39;;;;;;;7.75;4.30;;;;;;;;;;5132587;27;20039;-78
2023/06/19 03:09:11;;;;;;;4.60;4.20;;;;;;;;;;5132148;27;20031;-78
2023/06/19 03:11:39;;;;;;;6.57;3.80;;;;;;;;;;5114418;27;20059;-78
2023/06/19 03:14:07;;;;;;;5.43;4.30;;;;;;;;;;5141664;27;20134;-77
2023/06/19 03:16:33;;;;;;;5.47;3.67;;;;;;;;;;5100757;27;20066;-78
2023/06/19 03:19:00;;;;;;;4.20;3.80;;;;;;;;;;5132481;27;20035;-78
2023/06/19 03:21:26;;;;;;;6.55;4.00;;;;;;;;;;5113670;27;20066;-79
2023/06/19 03:23:52;;;;;;;4.85;4.03;;;;;;;;;;5097136;27;20035;-80
2023/06/19 03:26:21;;;;;;;5.60;4.15;;;;;;;;;;5113610;27;20035;-78
2023/06/19 03:28:47;;;;;;;3.85;3.45;;;;;;;;;;5113989;27;20408;-78
2023/06/19 03:31:13;;;;;;;4.07;3.70;;;;;;;;;;5113317;27;20031;-80
2023/06/19 03:33:39;;;;;;;3.90;3.53;;;;;;;;;;5096775;27;20078;-78
2023/06/19 03:36:07;;;;;;;6.93;3.92;;;;;;;;;;5112945;27;20095;-79
2023/06/19 03:38:56;;;;;;;4.13;3.67;;;;;;;;;;5112736;27;20038;-79
2023/06/19 03:41:26;;;;;;;7.18;3.17;;;;;;;;;;5113178;27;20031;-80
2023/06/19 03:43:53;;;;;;;5.57;3.60;;;;;;;;;;5113655;27;20027;-77
2023/06/19 03:46:19;;;;;;;5.05;3.72;;;;;;;;;;5113183;27;20042;-77
2023/06/19 03:48:46;;;;;;;7.75;3.58;;;;;;;;;;5079452;27;20384;-79
2023/06/19 03:51:12;;;;;;;5.68;3.30;;;;;;;;;;5113274;27;20425;-77
2023/06/19 03:53:38;;;;;;;8.52;3.72;;;;;;;;;;5113255;27;20541;-78
2023/06/19 03:56:04;;;;;;;3.53;3.22;;;;;;;;;;5113064;27;20062;-78
2023/06/19 03:58:31;;;;;;;5.45;3.80;;;;;;;;;;5097430;27;20039;-79
2023/06/19 04:00:57;;;;;;;4.68;3.50;;;;;;;;;;5096338;27;20042;-79
2023/06/19 04:03:23;;;;;;;6.72;4.07;;;;;;;;;;5113224;28;20031;-76
2023/06/19 04:05:49;;;;;;;9.40;3.40;;;;;;;;;;5113196;27;20569;-78
2023/06/19 04:08:15;;;;;;;4.60;3.60;;;;;;;;;;5112897;27;20164;-79
2023/06/19 04:10:43;;;;;;;5.63;3.13;;;;;;;;;;5112880;27;20059;-77
2023/06/19 04:13:09;;;;;;;3.33;3.00;;;;;;;;;;5131272;27;20035;-78
2023/06/19 04:15:37;;;;;;;5.07;3.45;;;;;;;;;;5113054;27;20062;-78
2023/06/19 04:18:03;;;;;;;6.82;3.33;;;;;;;;;;5112934;27;20557;-78
2023/06/19 04:20:29;;;;;;;6.40;3.10;;;;;;;;;;5112976;27;20524;-78
2023/06/19 04:22:56;;;;;;;4.30;3.10;;;;;;;;;;5131386;27;20031;-77
2023/06/19 04:25:22;;;;;;;6.22;3.10;;;;;;;;;;5130822;27;20023;-78
2023/06/19 04:27:49;;;;;;;3.95;3.05;;;;;;;;;;5112901;28;20045;-79
2023/06/19 04:30:15;;;;;;;5.78;2.95;;;;;;;;;;5130726;27;20114;-78
2023/06/19 04:32:41;;;;;;;4.05;3.40;;;;;;;;;;5131067;27;20031;-81
2023/06/19 04:35:08;;;;;;;7.32;3.10;;;;;;;;;;5112824;27;20408;-79
2023/06/19 04:37:34;;;;;;;6.38;4.75;;;;;;;;;;5131535;27;20035;-78
2023/06/19 04:40:00;;;;;;;4.65;3.85;;;;;;;;;;5112750;27;20035;-78
2023/06/19 04:42:26;;;;;;;3.80;3.30;;;;;;;;;;5112516;27;20035;-79
2023/06/19 04:44:52;;;;;;;4.38;3.00;;;;;;;;;;5112849;28;20122;-79
2023/06/19 04:47:19;;;;;;;4.78;3.00;;;;;;;;;;5112874;27;20130;-79
2023/06/19 04:49:45;;;;;;;4.55;2.60;;;;;;;;;;5114156;27;20142;-78
2023/06/19 04:52:11;;;;;;;4.70;3.50;;;;;;;;;;5141440;27;20035;-77
2023/06/19 04:54:37;;;;;;;6.57;3.20;;;;;;;;;;5147810;27;20038;-79
2023/06/19 04:57:04;;;;;;;10.18;3.03;;;;;;;;;;5145593;27;20039;-78
2023/06/19 04:59:30;;;;;;;5.63;3.13;;;;;;;;;;5135773;27;20035;-79
2023/06/19 05:01:57;;;;;;;3.60;3.30;;;;;;;;;;5127844;27;20039;-78
2023/06/19 05:04:23;;;;;;;3.58;3.10;;;;;;;;;;5134773;27;20119;-79
2023/06/19 05:06:49;;;;;;;3.65;3.03;;;;;;;;;;5134806;27;20597;-78
2023/06/19 05:09:15;;;;;;;6.45;2.97;;;;;;;;;;5134364;27;20047;-77
2023/06/19 05:11:41;;;;;;;3.10;2.80;;;;;;;;;;5134826;27;20027;-79
2023/06/19 05:14:07;;;;;;;3.95;2.90;;;;;;;;;;5134735;27;20035;-80
2023/06/19 05:16:33;;;;;;;4.60;2.92;;;;;;;;;;5134357;27;20409;-79
2023/06/19 05:19:00;;;;;;;6.05;2.50;;;;;;;;;;5116232;27;20528;-80
2023/06/19 05:21:26;;;;;;;5.47;2.63;;;;;;;;;;5134348;27;20042;-80
2023/06/19 05:23:53;;;;;;;3.35;2.60;;;;;;;;;;5134336;27;20116;-80
2023/06/19 05:26:19;;;;;;;3.78;2.40;;;;;;;;;;5098886;27;20172;-79
2023/06/19 05:28:46;;;;;;;2.78;2.58;;;;;;;;;;5134635;27;20027;-79
2023/06/19 05:31:12;;;;;;;7.72;2.45;;;;;;;;;;5134117;27;20039;-79
2023/06/19 05:33:38;;;;;;;5.38;2.47;;;;;;;;;;5134399;27;20128;-79
2023/06/19 05:36:04;;;;;;;5.10;2.08;;;;;;;;;;5134008;27;20139;-79
2023/06/19 05:38:30;;;;;;;5.22;2.15;;;;;;;;;;5134167;27;20071;-78
2023/06/19 05:40:57;;;;;;;6.53;2.60;;;;;;;;;;5115920;27;20035;-79
2023/06/19 05:43:24;;;;;;;4.15;2.88;;;;;;;;;;5134199;27;20121;-79
2023/06/19 05:45:51;;;;;;;5.88;2.60;;;;;;;;;;5134064;27;20034;-76
2023/06/19 05:48:17;;;;;;;4.15;2.50;;;;;;;;;;5115350;27;20126;-78
2023/06/19 05:50:43;;;;;;;4.10;2.40;;;;;;;;;;5115593;27;20043;-79
2023/06/19 05:53:08;;;;;;;3.40;2.50;;;;;;;;;;5098668;27;20088;-80
2023/06/19 05:55:35;;;;;;;2.53;2.33;;;;;;;;;;5133623;27;20130;-79
2023/06/19 05:58:01;;;;;;;2.85;2.47;;;;;;;;;;5115553;27;20059;-78
2023/06/19 06:00:29;;;;;;;3.88;2.60;;;;;;;;;;5133691;27;20496;-78
2023/06/19 06:02:58;;;;;;;2.70;2.50;;;;;;;;;;5132870;27;20027;-80
2023/06/19 06:05:24;;;;;;;2.67;2.47;;;;;;;;;;5115360;27;20074;-80
2023/06/19 06:07:50;;;;;;;4.93;2.67;;;;;;;;;;5134074;27;20688;-79
2023/06/19 06:10:16;;;;;;;2.80;2.60;;;;;;;;;;5133474;27;20059;-79
2023/06/19 06:12:44;;;;;;;3.47;2.17;;;;;;;;;;5133747;27;20055;-79
2023/06/19 06:15:11;;;;;;;3.30;1.90;;;;;;;;;;5115779;27;20035;-80
2023/06/19 06:17:37;;;;;;;5.85;2.67;;;;;;;;;;5134104;27;20409;-79
2023/06/19 06:20:11;;;;;;;2.70;2.50;;;;;;;;;;5115394;27;20039;-79
2023/06/19 06:22:40;;;;;;;1.98;1.88;;;;;;;;;;5133714;27;20440;-79
2023/06/19 06:25:07;;;;;;;2.50;2.30;;;;;;;;;;5133503;27;20043;-79
2023/06/19 06:27:33;;;;;;;4.13;2.30;;;;;;;;;;5133202;27;20043;-78
2023/06/19 06:29:59;;;;;;;4.22;2.30;;;;;;;;;;5114871;27;20512;-79
2023/06/19 06:32:26;;;;;;;2.35;2.15;;;;;;;;;;5114431;27;20509;-80
2023/06/19 06:34:52;;;;;;;2.20;2.00;;;;;;;;;;5133291;27;20031;-78
2023/06/19 06:37:22;;;;;;;8.57;2.50;;;;;;;;;;5132797;27;20151;-79
2023/06/19 06:39:49;;;;;;;3.42;2.10;;;;;;;;;;5114916;27;20027;-79
2023/06/19 06:42:15;;;;;;;4.22;2.40;;;;;;;;;;5132859;27;20092;-79
2023/06/19 06:44:43;;;;;;;2.63;2.42;;;;;;;;;;5081715;27;20450;-81
2023/06/19 06:47:09;;;;;;;2.53;2.33;;;;;;;;;;5106104;27;20031;-81
2023/06/19 06:49:36;;;;;;;3.05;2.15;;;;;;;;;;5139692;27;20038;-81
2023/06/19 06:52:03;;;;;;;5.38;2.30;;;;;;;;;;5133084;27;20417;-81
2023/06/19 06:54:29;;;;;;;2.50;2.30;;;;;;;;;;5132681;27;20035;-81
2023/06/19 06:56:59;;;;;;;4.45;2.25;;;;;;;;;;5132709;27;20054;-80
2023/06/19 06:59:27;;;;;;;2.95;2.58;;;;;;;;;;5132446;27;20122;-80
2023/06/19 07:01:54;;;;;;;2.50;2.30;;;;;;;;;;5114574;27;20686;-80
2023/06/19 07:04:20;;;;;;;2.45;2.22;;;;;;;;;;5114169;27;20533;-81
2023/06/19 07:06:46;;;;;;;2.78;2.55;;;;;;;;;;5114219;27;20558;-80
2023/06/19 07:09:12;;;;;;;3.92;2.30;;;;;;;;;;5132412;27;20095;-80
2023/06/19 07:11:38;;;;;;;2.67;1.80;;;;;;;;;;5132450;27;20111;-80
2023/06/19 07:14:04;;;;;;;5.60;2.35;;;;;;;;;;5114250;27;20076;-81
2023/06/19 07:16:30;;;;;;;5.63;2.40;;;;;;;;;;5113931;27;20050;-81
2023/06/19 07:18:56;;;;;;;4.32;2.60;;;;;;;;;;5132656;27;20588;-81
2023/06/19 07:21:22;;;;;;;8.80;3.08;;;;;;;;;;5132475;27;20687;-81
2023/06/19 07:23:48;;;;;;;4.30;2.50;;;;;;;;;;5132962;27;20053;-80
2023/06/19 07:26:14;;;;;;;4.90;2.70;;;;;;;;;;5133111;27;20035;-81
2023/06/19 07:28:41;;;;;;;4.20;2.50;;;;;;;;;;5097914;27;20034;-81
2023/06/19 07:31:07;;;;;;;2.63;2.50;;;;;;;;;;5114856;27;20035;-80
2023/06/19 07:33:33;;;;;;;2.30;2.10;;;;;;;;;;5114467;27;20035;-80
2023/06/19 07:35:59;;;;;;;9.02;2.75;;;;;;;;;;5132359;27;20046;-81
2023/06/19 07:38:25;;;;;;;3.25;2.45;;;;;;;;;;5132162;27;20031;-79
2023/06/19 07:40:51;;;;;;;2.58;2.40;;;;;;;;;;5132015;27;20256;-77
2023/06/19 07:43:17;;;;;;;5.65;2.80;;;;;;;;;;5132286;27;20294;-80
2023/06/19 07:45:43;;;;;;;2.65;2.45;;;;;;;;;;5114076;27;20035;-78
2023/06/19 07:48:09;;;;;;;3.42;2.78;;;;;;;;;;5096923;27;20037;-80
2023/06/19 07:50:35;;;;;;;6.25;2.80;;;;;;;;;;5131816;27;20437;-79
2023/06/19 07:53:01;;;;;;;7.32;2.80;;;;;;;;;;5131918;27;20035;-79
2023/06/19 07:55:28;;;;;;;6.80;3.47;;;;;;;;;;5132443;27;20416;-79
2023/06/19 07:57:56;;;;;;;4.53;3.30;;;;;;;;;;5138501;27;20177;-79
2023/06/19 08:00:23;;;;;;;9.70;3.53;;;;;;;;;;5124232;27;20031;-79
2023/06/19 08:02:49;;;;;;;6.18;3.13;;;;;;;;;;5138573;27;20034;-79
2023/06/19 08:05:15;;;;;;;3.17;2.40;;;;;;;;;;5131976;27;20105;-78
2023/06/19 08:07:41;;;;;;;11.30;2.95;;;;;;;;;;5131650;27;20182;-79
2023/06/19 08:10:07;;;;;;;2.72;2.53;;;;;;;;;;5112888;27;20051;-79
2023/06/19 08:12:34;;;;;;;7.68;3.00;;;;;;;;;;5130967;27;20051;-78
2023/06/19 08:15:00;;;;;;;7.15;3.40;;;;;;;;;;5131253;27;20114;-79
2023/06/19 08:17:26;;;;;;;10.10;3.28;;;;;;;;;;5131233;27;20089;-79
2023/06/19 08:19:52;;;;;;;4.45;3.05;;;;;;;;;;5131339;27;20035;-78
2023/06/19 08:22:18;;;;;;;3.70;2.80;;;;;;;;;;5131401;27;20046;-79
2023/06/19 08:24:44;;;;;;;5.85;2.40;;;;;;;;;;5130438;27;20038;-79
2023/06/19 08:27:11;;;;;;;4.60;2.60;;;;;;;;;;5131147;27;20525;-79
2023/06/19 08:29:36;;;;;;;4.40;2.80;;;;;;;;;;5131243;27;20413;-77
2023/06/19 08:32:03;;;;;;;3.55;2.47;;;;;;;;;;5114671;27;20550;-80
2023/06/19 08:34:29;;;;;;;8.25;3.03;;;;;;;;;;5123802;27;20035;-80
2023/06/19 08:36:54;;;;;;;2.90;2.70;;;;;;;;;;5131127;27;20043;-79
2023/06/19 08:39:22;;;;;;;3.92;2.47;;;;;;;;;;5113104;27;20042;-81
2023/06/19 08:41:48;;;;;;;4.03;2.55;;;;;;;;;;5131054;27;20509;-79
2023/06/19 08:44:13;;;;;;;4.63;2.53;;;;;;;;;;5131106;27;20054;-79
2023/06/19 08:46:41;;;;;;;4.25;2.45;;;;;;;;;;5112546;27;20035;-79
2023/06/19 08:49:09;;;;;;;4.43;2.97;;;;;;;;;;5131039;27;20069;-79
2023/06/19 08:51:36;;;;;;;5.00;2.63;;;;;;;;;;5130654;27;20031;-80
2023/06/19 08:54:04;;;;;;;3.53;2.50;;;;;;;;;;5096239;27;20050;-79
2023/06/19 08:56:34;;;;;;;5.40;3.35;;;;;;;;;;5112413;28;20126;-80
2023/06/19 08:59:00;;;;;;;;;;;;;;;;;;5096275;28;20039;-79
2023/06/19 09:01:26;;;;;;;8.02;2.80;;;;;;;;;;5130577;27;19940;-80
2023/06/19 09:03:52;;;;;;;4.65;2.67;;;;;;;;;;5112538;27;20031;-79
2023/06/19 09:06:19;;;;;;;5.32;2.95;;;;;;;;;;5112651;28;20122;-80
2023/06/19 09:08:45;;;;;;;2.80;2.55;;;;;;;;;;5130540;27;20114;-80
2023/06/19 09:11:11;;;;;;;3.92;2.40;;;;;;;;;;5130742;27;20139;-80
2023/06/19 09:13:37;;;;;;;5.32;2.72;;;;;;;;;;5130677;27;20068;-79
2023/06/19 09:16:04;;;;;;;5.03;2.67;;;;;;;;;;5130704;27;20039;-79
2023/06/19 09:18:31;;;;;;;2.58;2.38;;;;;;;;;;5112639;28;20027;-80
2023/06/19 09:20:57;;;;;;;3.38;2.88;;;;;;;;;;5131497;27;20027;-79
2023/06/19 09:23:23;;;;;;;3.00;2.80;;;;;;;;;;5113349;27;20050;-79
2023/06/19 09:25:56;;;;;;;3.63;2.30;;;;;;;;;;5114385;28;20516;-78
2023/06/19 09:28:23;;;;;;;2.50;2.40;;;;;;;;;;5131641;27;20166;-80
2023/06/19 09:30:56;;;;;;;3.42;2.72;;;;;;;;;;5132127;27;20413;-80
2023/06/19 09:33:22;;;;;;;8.82;2.70;;;;;;;;;;5131498;28;20035;-79
2023/06/19 09:35:49;;;;;;;4.20;2.75;;;;;;;;;;5112936;27;20047;-79
2023/06/19 09:38:16;;;;;;;7.10;2.83;;;;;;;;;;5082144;27;20087;-80
2023/06/19 09:40:44;;;;;;;7.50;2.97;;;;;;;;;;5116031;27;20532;-79
2023/06/19 09:43:10;;;;;;;2.67;2.47;;;;;;;;;;5116591;27;20532;-78
2023/06/19 09:45:36;;;;;;;3.60;2.40;;;;;;;;;;5134939;27;20027;-80
2023/06/19 09:48:02;;;;;;;4.35;2.80;;;;;;;;;;5116861;27;20039;-79
2023/06/19 09:50:47;;;;;;;10.95;5.95;;;;;;;;;;5116254;27;20046;-79
2023/06/19 09:53:14;;;;;;;4.68;4.05;;;;;;;;;;5136488;27;20032;-78
2023/06/19 09:55:40;;;;;;;8.25;4.20;;;;;;;;;;5137956;27;20100;-78
2023/06/19 09:58:06;;;;;;;7.85;3.80;;;;;;;;;;5139044;27;20070;-79
2023/06/19 10:00:33;;;;;;;3.35;3.05;;;;;;;;;;5136616;27;20462;-79
2023/06/19 10:03:00;;;;;;;3.53;3.10;;;;;;;;;;5115597;27;20035;-79
2023/06/19 10:05:30;;;;;;;5.38;2.53;;;;;;;;;;5115544;27;20030;-81
2023/06/19 10:07:59;;;;;;;;;;;;;;;;;;5115605;27;20539;-80
2023/06/19 10:10:26;;;;;;;3.20;3.00;;;;;;;;;;5115005;27;19926;-79
2023/06/19 10:12:54;;;;;;;2.83;2.63;;;;;;;;;;5116267;27;20038;-78
2023/06/19 10:15:27;;;;;;;2.80;2.50;;;;;;;;;;5135437;27;20466;-80
2023/06/19 10:17:54;;;;;;;3.30;3.08;;;;;;;;;;5136521;27;20046;-79
2023/06/19 10:20:24;;;;;;;6.90;3.10;;;;;;;;;;5146605;27;20052;-79
2023/06/19 10:22:53;;;;;;;5.03;3.00;;;;;;;;;;5116191;27;20633;-81
2023/06/19 10:25:20;;;;;;;4.70;2.75;;;;;;;;;;5115384;27;20030;-80
2023/06/19 10:27:46;;;;;;;5.47;2.65;;;;;;;;;;5115309;27;20113;-80
2023/06/19 10:30:17;;;;;;;3.00;2.28;;;;;;;;;;5115808;27;20199;-76
2023/06/19 10:32:43;;;;;;;3.35;2.50;;;;;;;;;;5115400;27;20035;-79
2023/06/19 10:35:15;;;;;;;7.63;2.50;;;;;;;;;;5134001;27;20520;-80
2023/06/19 10:37:41;;;;;;;10.65;2.58;;;;;;;;;;5133860;27;20573;-80
2023/06/19 10:40:09;;;;;;;2.60;2.40;;;;;;;;;;5135127;27;20035;-80
2023/06/19 10:42:36;;;;;;;2.90;2.70;;;;;;;;;;5133542;27;20035;-79
2023/06/19 10:45:05;;;;;;;6.63;3.00;;;;;;;;;;5115700;27;20050;-80
2023/06/19 10:47:33;;;;;;;5.18;3.65;;;;;;;;;;5098183;27;20035;-79
2023/06/19 10:49:59;;;;;;;7.32;2.50;;;;;;;;;;5098123;27;20038;-79
2023/06/19 10:52:25;;;;;;;3.35;2.30;;;;;;;;;;5134290;27;20035;-79
2023/06/19 10:54:54;;;;;;;3.22;2.33;;;;;;;;;;5115300;27;20055;-80
2023/06/19 10:57:27;;;;;;;2.50;2.33;;;;;;;;;;5133419;27;20047;-79
2023/06/19 10:59:53;;;;;;;3.38;2.20;;;;;;;;;;5123781;27;20084;-79
2023/06/19 11:02:19;;;;;;;5.00;2.47;;;;;;;;;;5141577;27;20040;-79
2023/06/19 11:04:45;;;;;;;6.10;2.70;;;;;;;;;;5116269;27;20023;-79
2023/06/19 11:07:11;;;;;;;3.78;2.50;;;;;;;;;;5114579;27;20035;-77
2023/06/19 11:09:37;;;;;;;4.03;2.72;;;;;;;;;;5132498;27;20062;-80
2023/06/19 11:12:03;;;;;;;3.80;2.58;;;;;;;;;;5132616;27;20031;-80
2023/06/19 11:14:29;;;;;;;2.83;2.40;;;;;;;;;;5132873;27;20109;-81
2023/06/19 11:16:55;;;;;;;3.95;3.20;;;;;;;;;;5132351;27;20051;-80
2023/06/19 11:19:22;;;;;;;4.60;2.65;;;;;;;;;;5132707;27;20031;-81
2023/06/19 11:21:49;;;;;;;3.33;2.78;;;;;;;;;;5132135;27;20470;-81
2023/06/19 11:24:15;;;;;;;6.07;2.90;;;;;;;;;;5097144;27;20027;-81
2023/06/19 11:26:43;;;;;;;2.20;2.10;;;;;;;;;;5132163;27;20035;-81
2023/06/19 11:29:16;;;;;;;3.38;2.50;;;;;;;;;;5132643;27;20087;-80
2023/06/19 11:31:42;;;;;;;3.38;2.70;;;;;;;;;;5132010;27;20035;-79
2023/06/19 11:34:08;;;;;;;6.82;2.92;;;;;;;;;;5132786;27;20454;-80
2023/06/19 11:36:36;;;;;;;2.70;2.50;;;;;;;;;;5113456;27;20138;-80
2023/06/19 11:39:05;;;;;;;4.18;2.53;;;;;;;;;;5113775;27;20035;-80
2023/06/19 11:41:31;;;;;;;2.95;2.47;;;;;;;;;;5113653;27;20042;-79
2023/06/19 11:44:04;;;;;;;8.68;2.90;;;;;;;;;;5132072;27;20118;-78
2023/06/19 11:46:30;;;;;;;5.40;2.30;;;;;;;;;;5113606;27;20031;-80
2023/06/19 11:49:19;;;;;;;3.75;2.63;;;;;;;;;;5096317;27;20037;-79
2023/06/19 11:51:46;;;;;;;6.25;3.10;;;;;;;;;;5131640;27;20046;-81
2023/06/19 11:54:18;;;;;;;3.45;2.90;;;;;;;;;;5096736;27;20539;-79
2023/06/19 11:56:44;;;;;;;3.88;2.60;;;;;;;;;;5131373;27;20425;-79
2023/06/19 11:59:10;;;;;;;4.80;2.78;;;;;;;;;;5131336;27;20039;-79
2023/06/19 12:01:36;;;;;;;4.47;2.70;;;;;;;;;;5131387;27;20077;-81
2023/06/19 12:04:02;;;;;;;2.95;2.35;;;;;;;;;;5136748;27;20038;-80
2023/06/19 12:06:28;;;;;;;2.60;2.40;;;;;;;;;;5138300;27;20046;-80
2023/06/19 12:08:57;;;;;;;2.53;2.38;;;;;;;;;;5113013;27;20031;-78
2023/06/19 12:11:24;;;;;;;3.55;2.78;;;;;;;;;;5131681;27;20042;-78
2023/06/19 12:13:50;;;;;;;2.55;2.33;;;;;;;;;;5131432;27;20027;-80
2023/06/19 12:16:16;;;;;;;5.70;2.63;;;;;;;;;;5078873;27;20043;-80
2023/06/19 12:18:42;;;;;;;3.58;2.70;;;;;;;;;;5131036;27;20042;-79
2023/06/19 12:21:08;;;;;;;3.30;2.60;;;;;;;;;;5113091;27;20175;-79
2023/06/19 12:23:34;;;;;;;3.90;2.70;;;;;;;;;;5112452;27;20038;-79
2023/06/19 12:26:00;;;;;;;4.93;2.55;;;;;;;;;;5131184;27;20027;-79
2023/06/19 12:28:26;;;;;;;5.72;2.60;;;;;;;;;;5131090;27;20491;-78
2023/06/19 12:30:53;;;;;;;3.15;2.70;;;;;;;;;;5112425;28;20127;-77
2023/06/19 12:33:20;;;;;;;5.13;2.40;;;;;;;;;;5112865;27;20088;-79
2023/06/19 12:35:46;;;;;;;3.20;2.33;;;;;;;;;;5131120;27;20047;-79
2023/06/19 12:38:12;;;;;;;7.97;2.50;;;;;;;;;;5131054;27;20501;-77
2023/06/19 12:40:38;;;;;;;4.10;2.50;;;;;;;;;;5112509;27;20030;-79
2023/06/19 12:43:05;;;;;;;4.38;2.58;;;;;;;;;;5131029;27;20118;-78
2023/06/19 12:45:30;;;;;;;3.00;2.80;;;;;;;;;;5112710;27;20114;-79
2023/06/19 12:47:57;;;;;;;11.98;2.65;;;;;;;;;;5130669;27;20054;-78
2023/06/19 12:50:23;;;;;;;3.03;2.60;;;;;;;;;;5112734;28;20095;-79
2023/06/19 12:52:50;;;;;;;6.63;2.33;;;;;;;;;;5130713;27;20027;-80
2023/06/19 12:55:16;;;;;;;2.55;2.35;;;;;;;;;;5130919;27;20129;-79
2023/06/19 12:57:42;;;;;;;5.82;2.72;;;;;;;;;;5112406;28;20502;-80
2023/06/19 13:00:11;;;;;;;4.03;2.40;;;;;;;;;;5112587;27;20027;-80
2023/06/19 13:02:37;;;;;;;;;;;;;;;;;;5131112;27;20417;-78
2023/06/19 13:05:03;;;;;;;2.53;2.33;;;;;;;;;;5130802;27;19912;-79
2023/06/19 13:07:31;;;;;;;5.60;2.65;;;;;;;;;;5112817;27;20035;-79
2023/06/19 13:09:57;;;;;;;4.07;2.63;;;;;;;;;;5130736;27;20053;-79
2023/06/19 13:12:23;;;;;;;2.97;2.45;;;;;;;;;;5134009;27;20035;-79
2023/06/19 13:14:49;;;;;;;5.18;2.40;;;;;;;;;;5134925;27;20460;-79
2023/06/19 13:17:15;;;;;;;2.72;2.53;;;;;;;;;;5116407;27;20039;-79
2023/06/19 13:19:41;;;;;;;3.28;2.90;;;;;;;;;;5116234;27;20039;-79
2023/06/19 13:22:07;;;;;;;3.30;2.75;;;;;;;;;;5134778;27;20162;-80
2023/06/19 13:24:33;;;;;;;5.25;2.60;;;;;;;;;;5134475;27;20091;-79
2023/06/19 13:26:59;;;;;;;4.43;2.85;;;;;;;;;;5134396;27;20041;-79
2023/06/19 13:29:25;;;;;;;3.58;2.90;;;;;;;;;;5134715;27;20027;-80
2023/06/19 13:31:52;;;;;;;3.67;2.47;;;;;;;;;;5134334;27;20039;-78
2023/06/19 13:34:18;;;;;;;4.82;2.40;;;;;;;;;;5134723;27;20038;-80
2023/06/19 13:36:44;;;;;;;8.65;2.80;;;;;;;;;;5134146;27;20046;-79
2023/06/19 13:39:10;;;;;;;8.43;2.85;;;;;;;;;;5134201;27;20043;-79
2023/06/19 13:41:36;;;;;;;3.10;2.75;;;;;;;;;;5115816;27;20130;-79
2023/06/19 13:44:02;;;;;;;3.03;2.83;;;;;;;;;;5134343;27;20454;-78
2023/06/19 13:46:29;;;;;;;3.03;2.72;;;;;;;;;;5116090;27;20550;-79
2023/06/19 13:48:55;;;;;;;5.18;2.67;;;;;;;;;;5139616;27;20054;-79
2023/06/19 13:51:21;;;;;;;7.45;2.88;;;;;;;;;;5121703;27;20058;-79
2023/06/19 13:53:47;;;;;;;3.25;2.90;;;;;;;;;;5140618;27;20573;-78
2023/06/19 13:56:13;;;;;;;5.13;2.50;;;;;;;;;;5126426;27;20095;-80
2023/06/19 13:58:39;;;;;;;3.03;2.58;;;;;;;;;;5127874;27;20027;-80
2023/06/19 14:01:06;;;;;;;2.97;2.60;;;;;;;;;;5122943;27;20077;-81
2023/06/19 14:03:32;;;;;;;2.97;2.70;;;;;;;;;;5135860;27;20046;-81
2023/06/19 14:05:58;;;;;;;6.22;2.80;;;;;;;;;;5135138;27;20041;-82
2023/06/19 14:08:24;;;;;;;2.83;2.63;;;;;;;;;;5099117;27;20031;-82
2023/06/19 14:10:50;;;;;;;3.95;3.63;;;;;;;;;;5099385;27;20067;-80
2023/06/19 14:13:17;;;;;;;6.22;3.00;;;;;;;;;;5134038;27;20047;-81
2023/06/19 14:15:43;;;;;;;3.88;2.72;;;;;;;;;;5133915;27;20047;-82
2023/06/19 14:18:09;;;;;;;4.50;2.47;;;;;;;;;;5116263;27;20023;-81
2023/06/19 14:20:35;;;;;;;7.10;3.45;;;;;;;;;;5115807;27;20505;-81
2023/06/19 14:23:00;;;;;;;5.18;2.67;;;;;;;;;;5132562;27;20038;-81
2023/06/19 14:25:27;;;;;;;10.55;2.90;;;;;;;;;;5134307;27;20043;-81
2023/06/19 14:27:53;;;;;;;2.50;2.30;;;;;;;;;;5115657;27;20394;-80
2023/06/19 14:30:19;;;;;;;2.83;2.63;;;;;;;;;;5115462;27;20039;-81
2023/06/19 14:32:45;;;;;;;4.20;2.60;;;;;;;;;;5134070;27;20110;-80
2023/06/19 14:35:11;;;;;;;3.15;2.90;;;;;;;;;;5116471;27;20051;-81
2023/06/19 14:37:37;;;;;;;3.05;2.75;;;;;;;;;;5133718;27;20058;-82
2023/06/19 14:40:04;;;;;;;4.32;2.60;;;;;;;;;;5134199;27;20035;-82